TAF AMD UHMA 122015Z 1220/1321 13003MPS 5000 BR FEW003 SCT020
TEMPO 1220/1224 34005MPS 0400 FZFG BKN002 BKN015
TEMPO 1300/1321 10009G14MPS 1100 SHSN BR BKN003 BKN015CB
From batch tds/tafs/production/2023/5/12/h20_m24_tafs.cache.xml
Issued (12 months ago)
Forecasts
1220/1321 13006KT FEW300 SCT2000

---
wx_string: BR
fcst_time_to: '2023-05-13T21:00:00Z'
sky_condition:
- - sky_cover: FEW
    cloud_base_ft_agl: '300'
- - sky_cover: SCT
    cloud_base_ft_agl: '2000'
wind_speed_kt: '6'
fcst_time_from: '2023-05-12T20:00:00Z'
wind_dir_degrees: '130'
visibility_statute_mi: '3.11'

TEMPO 1220/1300 34010KT BKN200 BKN1500

---
wx_string: FZFG
fcst_time_to: '2023-05-13T00:00:00Z'
sky_condition:
- - sky_cover: BKN
    cloud_base_ft_agl: '200'
- - sky_cover: BKN
    cloud_base_ft_agl: '1500'
wind_speed_kt: '10'
fcst_time_from: '2023-05-12T20:00:00Z'
change_indicator: TEMPO
wind_dir_degrees: '340'
visibility_statute_mi: '0.25'

TEMPO 1300/1321 10017G27KT BKN300 BKNCB1500

---
wx_string: SHSN BR
fcst_time_to: '2023-05-13T21:00:00Z'
wind_gust_kt: '27'
sky_condition:
- - sky_cover: BKN
    cloud_base_ft_agl: '300'
- - sky_cover: BKN
    cloud_type: CB
    cloud_base_ft_agl: '1500'
wind_speed_kt: '17'
fcst_time_from: '2023-05-13T00:00:00Z'
change_indicator: TEMPO
wind_dir_degrees: '100'
visibility_statute_mi: '0.68'

talk